sensor_id;sensor_type;location;lat;lon;timestamp;P1;durP1;ratioP1;P2;durP2;ratioP2
70825;SDS011;58446;41.490;22.098;2023-06-14T00:01:46;7.38;;;4.68;;
70825;SDS011;58446;41.490;22.098;2023-06-14T00:04:12;7.80;;;4.37;;
70825;SDS011;58446;41.490;22.098;2023-06-14T00:06:39;10.23;;;5.00;;
70825;SDS011;58446;41.490;22.098;2023-06-14T00:09:06;8.27;;;4.40;;
70825;SDS011;58446;41.490;22.098;2023-06-14T00:11:33;8.80;;;4.80;;
70825;SDS011;58446;41.490;22.098;2023-06-14T00:13:59;7.37;;;4.53;;
70825;SDS011;58446;41.490;22.098;2023-06-14T00:16:25;9.98;;;4.72;;
70825;SDS011;58446;41.490;22.098;2023-06-14T00:18:51;9.43;;;4.22;;
70825;SDS011;58446;41.490;22.098;2023-06-14T00:21:17;8.33;;;4.80;;
70825;SDS011;58446;41.490;22.098;2023-06-14T00:23:43;7.82;;;4.55;;
70825;SDS011;58446;41.490;22.098;2023-06-14T00:26:10;9.38;;;4.53;;
70825;SDS011;58446;41.490;22.098;2023-06-14T00:28:36;8.97;;;4.60;;
70825;SDS011;58446;41.490;22.098;2023-06-14T00:31:02;9.52;;;4.57;;
70825;SDS011;58446;41.490;22.098;2023-06-14T00:33:27;7.50;;;4.37;;
70825;SDS011;58446;41.490;22.098;2023-06-14T00:35:53;8.65;;;5.05;;
70825;SDS011;58446;41.490;22.098;2023-06-14T00:38:19;9.70;;;4.55;;
70825;SDS011;58446;41.490;22.098;2023-06-14T00:40:46;8.03;;;4.60;;
70825;SDS011;58446;41.490;22.098;2023-06-14T00:43:12;12.30;;;4.78;;
70825;SDS011;58446;41.490;22.098;2023-06-14T00:45:38;12.35;;;4.65;;
70825;SDS011;58446;41.490;22.098;2023-06-14T00:48:04;32.33;;;6.30;;
70825;SDS011;58446;41.490;22.098;2023-06-14T00:50:32;123.83;;;10.77;;
70825;SDS011;58446;41.490;22.098;2023-06-14T00:52:59;64.43;;;7.30;;
70825;SDS011;58446;41.490;22.098;2023-06-14T00:55:26;53.28;;;6.95;;
70825;SDS011;58446;41.490;22.098;2023-06-14T00:57:53;27.83;;;5.60;;
70825;SDS011;58446;41.490;22.098;2023-06-14T01:00:20;21.30;;;5.65;;
70825;SDS011;58446;41.490;22.098;2023-06-14T01:02:46;17.03;;;4.80;;
70825;SDS011;58446;41.490;22.098;2023-06-14T01:05:12;12.85;;;4.75;;
70825;SDS011;58446;41.490;22.098;2023-06-14T01:10:59;12.43;;;5.13;;
70825;SDS011;58446;41.490;22.098;2023-06-14T01:13:38;12.05;;;5.95;;
70825;SDS011;58446;41.490;22.098;2023-06-14T01:16:06;11.23;;;5.10;;
70825;SDS011;58446;41.490;22.098;2023-06-14T01:18:33;12.90;;;4.80;;
70825;SDS011;58446;41.490;22.098;2023-06-14T01:21:00;13.57;;;5.65;;
70825;SDS011;58446;41.490;22.098;2023-06-14T01:23:30;11.13;;;5.18;;
70825;SDS011;58446;41.490;22.098;2023-06-14T01:26:00;8.07;;;4.53;;
70825;SDS011;58446;41.490;22.098;2023-06-14T01:28:28;10.93;;;4.80;;
70825;SDS011;58446;41.490;22.098;2023-06-14T01:30:58;10.18;;;4.68;;
70825;SDS011;58446;41.490;22.098;2023-06-14T01:33:29;7.90;;;4.80;;
70825;SDS011;58446;41.490;22.098;2023-06-14T01:35:56;9.50;;;4.63;;
70825;SDS011;58446;41.490;22.098;2023-06-14T01:38:23;11.52;;;5.38;;
70825;SDS011;58446;41.490;22.098;2023-06-14T01:40:50;9.70;;;4.97;;
70825;SDS011;58446;41.490;22.098;2023-06-14T01:43:18;11.95;;;4.93;;
70825;SDS011;58446;41.490;22.098;2023-06-14T01:45:45;9.25;;;4.30;;
70825;SDS011;58446;41.490;22.098;2023-06-14T01:48:12;8.05;;;4.55;;
70825;SDS011;58446;41.490;22.098;2023-06-14T01:50:38;9.23;;;4.88;;
70825;SDS011;58446;41.490;22.098;2023-06-14T01:53:07;11.67;;;4.77;;
70825;SDS011;58446;41.490;22.098;2023-06-14T01:55:34;9.30;;;5.00;;
70825;SDS011;58446;41.490;22.098;2023-06-14T01:58:02;13.35;;;5.13;;
70825;SDS011;58446;41.490;22.098;2023-06-14T02:00:29;9.27;;;5.20;;
70825;SDS011;58446;41.490;22.098;2023-06-14T02:02:54;10.73;;;4.75;;
70825;SDS011;58446;41.490;22.098;2023-06-14T02:05:21;10.37;;;5.13;;
70825;SDS011;58446;41.490;22.098;2023-06-14T02:07:46;9.80;;;4.63;;
70825;SDS011;58446;41.490;22.098;2023-06-14T02:10:12;10.27;;;4.75;;
70825;SDS011;58446;41.490;22.098;2023-06-14T02:12:39;8.30;;;4.63;;
70825;SDS011;58446;41.490;22.098;2023-06-14T02:15:05;9.53;;;4.93;;
70825;SDS011;58446;41.490;22.098;2023-06-14T02:17:32;12.85;;;5.15;;
70825;SDS011;58446;41.490;22.098;2023-06-14T02:19:58;13.00;;;5.10;;
70825;SDS011;58446;41.490;22.098;2023-06-14T02:22:23;9.47;;;4.93;;
70825;SDS011;58446;41.490;22.098;2023-06-14T02:24:49;8.90;;;4.65;;
70825;SDS011;58446;41.490;22.098;2023-06-14T02:27:15;8.75;;;5.00;;
70825;SDS011;58446;41.490;22.098;2023-06-14T02:29:42;10.48;;;5.05;;
70825;SDS011;58446;41.490;22.098;2023-06-14T02:32:08;11.73;;;5.50;;
70825;SDS011;58446;41.490;22.098;2023-06-14T02:34:34;10.10;;;5.18;;
70825;SDS011;58446;41.490;22.098;2023-06-14T02:37:00;11.25;;;5.50;;
70825;SDS011;58446;41.490;22.098;2023-06-14T02:39:28;9.75;;;5.15;;
70825;SDS011;58446;41.490;22.098;2023-06-14T02:41:54;10.40;;;5.80;;
70825;SDS011;58446;41.490;22.098;2023-06-14T02:44:23;10.60;;;5.87;;
70825;SDS011;58446;41.490;22.098;2023-06-14T02:46:52;9.68;;;4.80;;
70825;SDS011;58446;41.490;22.098;2023-06-14T02:49:18;8.25;;;5.00;;
70825;SDS011;58446;41.490;22.098;2023-06-14T02:51:43;9.10;;;5.37;;
70825;SDS011;58446;41.490;22.098;2023-06-14T02:54:09;8.65;;;5.07;;
70825;SDS011;58446;41.490;22.098;2023-06-14T02:56:36;9.98;;;5.57;;
70825;SDS011;58446;41.490;22.098;2023-06-14T02:59:02;12.60;;;5.57;;
70825;SDS011;58446;41.490;22.098;2023-06-14T03:01:27;12.45;;;5.90;;
70825;SDS011;58446;41.490;22.098;2023-06-14T03:04:02;9.33;;;5.43;;
70825;SDS011;58446;41.490;22.098;2023-06-14T03:06:28;9.10;;;5.68;;
70825;SDS011;58446;41.490;22.098;2023-06-14T03:08:59;9.90;;;4.95;;
70825;SDS011;58446;41.490;22.098;2023-06-14T03:11:28;10.77;;;5.50;;
70825;SDS011;58446;41.490;22.098;2023-06-14T03:13:54;9.80;;;6.00;;
70825;SDS011;58446;41.490;22.098;2023-06-14T03:16:21;10.33;;;5.20;;
70825;SDS011;58446;41.490;22.098;2023-06-14T03:18:49;10.05;;;5.38;;
70825;SDS011;58446;41.490;22.098;2023-06-14T03:21:16;10.15;;;5.68;;
70825;SDS011;58446;41.490;22.098;2023-06-14T03:23:43;8.93;;;4.78;;
70825;SDS011;58446;41.490;22.098;2023-06-14T03:26:09;9.68;;;5.40;;
70825;SDS011;58446;41.490;22.098;2023-06-14T03:28:55;11.57;;;5.00;;
70825;SDS011;58446;41.490;22.098;2023-06-14T03:31:21;10.60;;;5.03;;
70825;SDS011;58446;41.490;22.098;2023-06-14T03:33:47;9.57;;;5.35;;
70825;SDS011;58446;41.490;22.098;2023-06-14T03:36:13;8.70;;;4.40;;
70825;SDS011;58446;41.490;22.098;2023-06-14T03:38:44;9.85;;;5.22;;
70825;SDS011;58446;41.490;22.098;2023-06-14T03:41:10;11.25;;;5.50;;
70825;SDS011;58446;41.490;22.098;2023-06-14T03:43:36;9.60;;;5.60;;
70825;SDS011;58446;41.490;22.098;2023-06-14T03:46:01;9.80;;;5.03;;
70825;SDS011;58446;41.490;22.098;2023-06-14T03:48:27;9.90;;;5.22;;
70825;SDS011;58446;41.490;22.098;2023-06-14T03:50:53;8.17;;;4.80;;
70825;SDS011;58446;41.490;22.098;2023-06-14T03:53:20;12.90;;;5.90;;
70825;SDS011;58446;41.490;22.098;2023-06-14T03:55:48;10.65;;;4.53;;
70825;SDS011;58446;41.490;22.098;2023-06-14T03:58:15;10.45;;;5.07;;
70825;SDS011;58446;41.490;22.098;2023-06-14T04:00:41;9.53;;;4.27;;
70825;SDS011;58446;41.490;22.098;2023-06-14T04:03:06;7.90;;;4.60;;
70825;SDS011;58446;41.490;22.098;2023-06-14T04:05:32;9.13;;;5.17;;
70825;SDS011;58446;41.490;22.098;2023-06-14T04:07:58;10.48;;;4.40;;
70825;SDS011;58446;41.490;22.098;2023-06-14T04:10:25;9.80;;;5.05;;
70825;SDS011;58446;41.490;22.098;2023-06-14T04:12:52;9.13;;;4.75;;
70825;SDS011;58446;41.490;22.098;2023-06-14T04:15:18;10.07;;;4.77;;
70825;SDS011;58446;41.490;22.098;2023-06-14T04:17:43;9.02;;;4.57;;
70825;SDS011;58446;41.490;22.098;2023-06-14T04:20:09;8.73;;;4.13;;
70825;SDS011;58446;41.490;22.098;2023-06-14T04:22:36;8.48;;;4.50;;
70825;SDS011;58446;41.490;22.098;2023-06-14T04:25:02;7.72;;;4.28;;
70825;SDS011;58446;41.490;22.098;2023-06-14T04:27:28;10.65;;;4.40;;
70825;SDS011;58446;41.490;22.098;2023-06-14T04:29:56;10.50;;;4.73;;
70825;SDS011;58446;41.490;22.098;2023-06-14T04:32:23;9.60;;;5.28;;
70825;SDS011;58446;41.490;22.098;2023-06-14T04:34:54;10.82;;;5.25;;
70825;SDS011;58446;41.490;22.098;2023-06-14T04:37:21;11.63;;;5.25;;
70825;SDS011;58446;41.490;22.098;2023-06-14T04:39:50;11.02;;;5.30;;
70825;SDS011;58446;41.490;22.098;2023-06-14T04:42:16;10.13;;;5.67;;
70825;SDS011;58446;41.490;22.098;2023-06-14T04:44:45;8.15;;;5.05;;
70825;SDS011;58446;41.490;22.098;2023-06-14T04:47:12;8.70;;;5.15;;
70825;SDS011;58446;41.490;22.098;2023-06-14T04:49:41;11.07;;;5.47;;
70825;SDS011;58446;41.490;22.098;2023-06-14T04:52:07;9.67;;;5.30;;
70825;SDS011;58446;41.490;22.098;2023-06-14T04:54:35;9.18;;;5.80;;
70825;SDS011;58446;41.490;22.098;2023-06-14T04:57:02;9.68;;;6.18;;
70825;SDS011;58446;41.490;22.098;2023-06-14T04:59:30;10.35;;;5.47;;
70825;SDS011;58446;41.490;22.098;2023-06-14T05:01:58;9.57;;;6.00;;
70825;SDS011;58446;41.490;22.098;2023-06-14T05:04:25;9.03;;;5.90;;
70825;SDS011;58446;41.490;22.098;2023-06-14T05:06:53;10.32;;;5.85;;
70825;SDS011;58446;41.490;22.098;2023-06-14T05:09:22;10.38;;;6.00;;
70825;SDS011;58446;41.490;22.098;2023-06-14T05:11:48;11.15;;;6.80;;
70825;SDS011;58446;41.490;22.098;2023-06-14T05:14:15;11.17;;;6.57;;
70825;SDS011;58446;41.490;22.098;2023-06-14T05:16:41;10.02;;;5.75;;
70825;SDS011;58446;41.490;22.098;2023-06-14T05:19:08;10.70;;;6.22;;
70825;SDS011;58446;41.490;22.098;2023-06-14T05:21:35;10.18;;;5.90;;
70825;SDS011;58446;41.490;22.098;2023-06-14T05:24:02;8.90;;;5.65;;
70825;SDS011;58446;41.490;22.098;2023-06-14T05:26:28;9.80;;;5.00;;
70825;SDS011;58446;41.490;22.098;2023-06-14T05:28:56;11.00;;;5.93;;
70825;SDS011;58446;41.490;22.098;2023-06-14T05:31:22;10.43;;;4.97;;
70825;SDS011;58446;41.490;22.098;2023-06-14T05:33:49;10.45;;;4.88;;
70825;SDS011;58446;41.490;22.098;2023-06-14T05:36:15;9.30;;;5.23;;
70825;SDS011;58446;41.490;22.098;2023-06-14T05:38:41;8.65;;;5.18;;
70825;SDS011;58446;41.490;22.098;2023-06-14T05:41:07;9.80;;;5.13;;
70825;SDS011;58446;41.490;22.098;2023-06-14T05:43:32;9.00;;;5.87;;
70825;SDS011;58446;41.490;22.098;2023-06-14T05:45:58;10.75;;;5.13;;
70825;SDS011;58446;41.490;22.098;2023-06-14T05:48:24;10.97;;;5.17;;
70825;SDS011;58446;41.490;22.098;2023-06-14T05:50:50;9.77;;;5.20;;
70825;SDS011;58446;41.490;22.098;2023-06-14T05:53:16;13.65;;;5.05;;
70825;SDS011;58446;41.490;22.098;2023-06-14T05:55:41;10.63;;;4.83;;
70825;SDS011;58446;41.490;22.098;2023-06-14T05:58:07;8.30;;;4.53;;
70825;SDS011;58446;41.490;22.098;2023-06-14T06:00:33;8.70;;;5.20;;
70825;SDS011;58446;41.490;22.098;2023-06-14T06:02:58;10.73;;;5.90;;
70825;SDS011;58446;41.490;22.098;2023-06-14T06:05:26;9.17;;;5.40;;
70825;SDS011;58446;41.490;22.098;2023-06-14T06:07:51;8.55;;;4.53;;
70825;SDS011;58446;41.490;22.098;2023-06-14T06:10:17;9.60;;;4.93;;
70825;SDS011;58446;41.490;22.098;2023-06-14T06:12:43;10.03;;;5.07;;
70825;SDS011;58446;41.490;22.098;2023-06-14T06:15:09;9.77;;;5.65;;
70825;SDS011;58446;41.490;22.098;2023-06-14T06:17:38;8.68;;;4.93;;
70825;SDS011;58446;41.490;22.098;2023-06-14T06:20:05;10.30;;;5.03;;
70825;SDS011;58446;41.490;22.098;2023-06-14T06:22:36;8.82;;;4.97;;
70825;SDS011;58446;41.490;22.098;2023-06-14T06:25:02;11.20;;;5.50;;
70825;SDS011;58446;41.490;22.098;2023-06-14T06:27:28;8.48;;;5.38;;
70825;SDS011;58446;41.490;22.098;2023-06-14T06:29:53;9.03;;;5.20;;
70825;SDS011;58446;41.490;22.098;2023-06-14T06:32:19;11.57;;;5.53;;
70825;SDS011;58446;41.490;22.098;2023-06-14T06:34:45;11.63;;;5.20;;
70825;SDS011;58446;41.490;22.098;2023-06-14T06:37:13;9.85;;;5.97;;
70825;SDS011;58446;41.490;22.098;2023-06-14T06:39:39;9.23;;;5.35;;
70825;SDS011;58446;41.490;22.098;2023-06-14T06:42:05;11.35;;;4.80;;
70825;SDS011;58446;41.490;22.098;2023-06-14T06:44:31;7.67;;;4.50;;
70825;SDS011;58446;41.490;22.098;2023-06-14T06:46:57;11.00;;;5.30;;
70825;SDS011;58446;41.490;22.098;2023-06-14T06:49:24;10.98;;;5.57;;
70825;SDS011;58446;41.490;22.098;2023-06-14T06:52:07;8.27;;;4.50;;
70825;SDS011;58446;41.490;22.098;2023-06-14T06:54:33;10.60;;;4.78;;
70825;SDS011;58446;41.490;22.098;2023-06-14T06:57:00;13.07;;;5.60;;
70825;SDS011;58446;41.490;22.098;2023-06-14T06:59:26;8.18;;;4.32;;
70825;SDS011;58446;41.490;22.098;2023-06-14T07:01:52;9.70;;;5.30;;
70825;SDS011;58446;41.490;22.098;2023-06-14T07:04:18;8.80;;;4.60;;
70825;SDS011;58446;41.490;22.098;2023-06-14T07:06:46;10.50;;;5.70;;
70825;SDS011;58446;41.490;22.098;2023-06-14T07:09:12;10.43;;;5.07;;
70825;SDS011;58446;41.490;22.098;2023-06-14T07:11:40;9.90;;;5.13;;
70825;SDS011;58446;41.490;22.098;2023-06-14T07:14:06;10.70;;;4.93;;
70825;SDS011;58446;41.490;22.098;2023-06-14T07:16:32;10.77;;;4.88;;
70825;SDS011;58446;41.490;22.098;2023-06-14T07:18:58;9.02;;;5.38;;
70825;SDS011;58446;41.490;22.098;2023-06-14T07:21:24;9.80;;;5.50;;
70825;SDS011;58446;41.490;22.098;2023-06-14T07:23:53;9.43;;;5.47;;
70825;SDS011;58446;41.490;22.098;2023-06-14T07:26:18;9.25;;;5.13;;
70825;SDS011;58446;41.490;22.098;2023-06-14T07:28:45;9.98;;;5.07;;
70825;SDS011;58446;41.490;22.098;2023-06-14T07:31:12;10.63;;;5.03;;
70825;SDS011;58446;41.490;22.098;2023-06-14T07:33:38;9.87;;;5.33;;
70825;SDS011;58446;41.490;22.098;2023-06-14T07:36:05;9.93;;;5.07;;
70825;SDS011;58446;41.490;22.098;2023-06-14T07:38:31;11.13;;;5.40;;
70825;SDS011;58446;41.490;22.098;2023-06-14T07:40:56;9.80;;;6.00;;
70825;SDS011;58446;41.490;22.098;2023-06-14T07:43:22;11.68;;;5.57;;
70825;SDS011;58446;41.490;22.098;2023-06-14T07:45:48;9.03;;;5.00;;
70825;SDS011;58446;41.490;22.098;2023-06-14T07:48:13;9.88;;;4.93;;
70825;SDS011;58446;41.490;22.098;2023-06-14T07:50:40;11.48;;;5.50;;
70825;SDS011;58446;41.490;22.098;2023-06-14T07:53:06;8.75;;;5.60;;
70825;SDS011;58446;41.490;22.098;2023-06-14T07:55:31;15.07;;;5.77;;
70825;SDS011;58446;41.490;22.098;2023-06-14T07:57:58;8.75;;;4.78;;
70825;SDS011;58446;41.490;22.098;2023-06-14T08:00:24;10.40;;;5.00;;
70825;SDS011;58446;41.490;22.098;2023-06-14T08:02:50;11.73;;;5.40;;
70825;SDS011;58446;41.490;22.098;2023-06-14T08:05:17;10.13;;;5.18;;
70825;SDS011;58446;41.490;22.098;2023-06-14T08:07:44;10.20;;;5.03;;
70825;SDS011;58446;41.490;22.098;2023-06-14T08:10:10;8.10;;;4.57;;
70825;SDS011;58446;41.490;22.098;2023-06-14T08:12:36;10.40;;;5.20;;
70825;SDS011;58446;41.490;22.098;2023-06-14T08:15:02;10.73;;;5.20;;
70825;SDS011;58446;41.490;22.098;2023-06-14T08:17:28;9.60;;;4.40;;
70825;SDS011;58446;41.490;22.098;2023-06-14T08:19:54;9.02;;;4.68;;
70825;SDS011;58446;41.490;22.098;2023-06-14T08:22:22;10.63;;;5.47;;
70825;SDS011;58446;41.490;22.098;2023-06-14T08:24:49;8.40;;;4.93;;
70825;SDS011;58446;41.490;22.098;2023-06-14T08:27:15;10.23;;;5.57;;
70825;SDS011;58446;41.490;22.098;2023-06-14T08:29:41;12.30;;;4.97;;
70825;SDS011;58446;41.490;22.098;2023-06-14T08:32:07;8.53;;;5.30;;
70825;SDS011;58446;41.490;22.098;2023-06-14T08:34:33;9.90;;;5.20;;
70825;SDS011;58446;41.490;22.098;2023-06-14T08:36:59;8.73;;;5.30;;
70825;SDS011;58446;41.490;22.098;2023-06-14T08:39:25;9.00;;;5.27;;
70825;SDS011;58446;41.490;22.098;2023-06-14T08:41:51;9.00;;;5.18;;
70825;SDS011;58446;41.490;22.098;2023-06-14T08:44:18;10.13;;;5.88;;
70825;SDS011;58446;41.490;22.098;2023-06-14T08:46:44;8.45;;;4.63;;
70825;SDS011;58446;41.490;22.098;2023-06-14T08:49:13;8.73;;;4.80;;
70825;SDS011;58446;41.490;22.098;2023-06-14T08:51:42;9.40;;;5.32;;
70825;SDS011;58446;41.490;22.098;2023-06-14T08:54:09;8.38;;;4.88;;
70825;SDS011;58446;41.490;22.098;2023-06-14T08:56:39;9.52;;;4.95;;
70825;SDS011;58446;41.490;22.098;2023-06-14T08:59:06;8.88;;;4.70;;
70825;SDS011;58446;41.490;22.098;2023-06-14T09:01:36;10.23;;;4.73;;
70825;SDS011;58446;41.490;22.098;2023-06-14T09:04:02;7.75;;;4.30;;
70825;SDS011;58446;41.490;22.098;2023-06-14T09:06:30;9.50;;;4.40;;
70825;SDS011;58446;41.490;22.098;2023-06-14T09:08:56;11.55;;;5.20;;
70825;SDS011;58446;41.490;22.098;2023-06-14T09:11:22;8.73;;;5.00;;
70825;SDS011;58446;41.490;22.098;2023-06-14T09:13:49;9.10;;;5.90;;
70825;SDS011;58446;41.490;22.098;2023-06-14T09:16:15;8.55;;;5.10;;
70825;SDS011;58446;41.490;22.098;2023-06-14T09:18:42;8.50;;;5.18;;
70825;SDS011;58446;41.490;22.098;2023-06-14T09:21:10;10.40;;;4.95;;
70825;SDS011;58446;41.490;22.098;2023-06-14T09:23:40;8.40;;;4.50;;
70825;SDS011;58446;41.490;22.098;2023-06-14T09:28:44;7.70;;;4.25;;
70825;SDS011;58446;41.490;22.098;2023-06-14T09:31:15;9.40;;;4.85;;
70825;SDS011;58446;41.490;22.098;2023-06-14T09:33:43;8.27;;;4.53;;
70825;SDS011;58446;41.490;22.098;2023-06-14T09:36:23;10.25;;;4.53;;
70825;SDS011;58446;41.490;22.098;2023-06-14T09:38:57;7.93;;;4.20;;
70825;SDS011;58446;41.490;22.098;2023-06-14T09:41:35;7.20;;;4.30;;
70825;SDS011;58446;41.490;22.098;2023-06-14T09:44:08;9.40;;;4.35;;
70825;SDS011;58446;41.490;22.098;2023-06-14T09:46:35;8.25;;;4.35;;
70825;SDS011;58446;41.490;22.098;2023-06-14T09:49:02;9.35;;;4.60;;
70825;SDS011;58446;41.490;22.098;2023-06-14T09:51:29;8.27;;;4.20;;
70825;SDS011;58446;41.490;22.098;2023-06-14T09:54:00;7.97;;;4.70;;
70825;SDS011;58446;41.490;22.098;2023-06-14T09:56:34;8.88;;;4.45;;
70825;SDS011;58446;41.490;22.098;2023-06-14T09:59:03;8.15;;;4.90;;
70825;SDS011;58446;41.490;22.098;2023-06-14T10:01:30;8.85;;;4.93;;
70825;SDS011;58446;41.490;22.098;2023-06-14T10:04:06;9.20;;;4.83;;
70825;SDS011;58446;41.490;22.098;2023-06-14T10:06:35;7.90;;;4.85;;
70825;SDS011;58446;41.490;22.098;2023-06-14T10:09:04;8.07;;;4.40;;
70825;SDS011;58446;41.490;22.098;2023-06-14T10:11:34;8.20;;;4.93;;
70825;SDS011;58446;41.490;22.098;2023-06-14T10:14:01;9.45;;;5.00;;
70825;SDS011;58446;41.490;22.098;2023-06-14T10:16:33;9.10;;;5.33;;
70825;SDS011;58446;41.490;22.098;2023-06-14T10:19:18;8.93;;;5.13;;
70825;SDS011;58446;41.490;22.098;2023-06-14T10:22:10;9.20;;;4.60;;
70825;SDS011;58446;41.490;22.098;2023-06-14T10:24:42;8.57;;;4.68;;
70825;SDS011;58446;41.490;22.098;2023-06-14T10:27:09;8.43;;;4.25;;
70825;SDS011;58446;41.490;22.098;2023-06-14T10:32:23;8.95;;;5.15;;
70825;SDS011;58446;41.490;22.098;2023-06-14T10:35:00;12.40;;;8.05;;
70825;SDS011;58446;41.490;22.098;2023-06-14T10:37:27;13.88;;;10.10;;
70825;SDS011;58446;41.490;22.098;2023-06-14T10:39:53;19.73;;;12.85;;
70825;SDS011;58446;41.490;22.098;2023-06-14T10:42:19;19.93;;;12.50;;
70825;SDS011;58446;41.490;22.098;2023-06-14T10:47:24;9.25;;;5.20;;
70825;SDS011;58446;41.490;22.098;2023-06-14T10:49:52;8.00;;;5.47;;
70825;SDS011;58446;41.490;22.098;2023-06-14T10:52:28;7.50;;;4.50;;
70825;SDS011;58446;41.490;22.098;2023-06-14T10:57:44;7.47;;;4.57;;
70825;SDS011;58446;41.490;22.098;2023-06-14T11:00:13;7.65;;;4.28;;
70825;SDS011;58446;41.490;22.098;2023-06-14T11:05:16;8.37;;;4.20;;
70825;SDS011;58446;41.490;22.098;2023-06-14T11:10:46;8.23;;;4.72;;
70825;SDS011;58446;41.490;22.098;2023-06-14T11:13:12;8.55;;;4.65;;
70825;SDS011;58446;41.490;22.098;2023-06-14T11:15:43;8.20;;;4.70;;
70825;SDS011;58446;41.490;22.098;2023-06-14T11:18:11;8.13;;;4.23;;
70825;SDS011;58446;41.490;22.098;2023-06-14T11:20:41;7.75;;;4.25;;
70825;SDS011;58446;41.490;22.098;2023-06-14T11:23:07;8.57;;;5.60;;
70825;SDS011;58446;41.490;22.098;2023-06-14T11:25:33;8.23;;;4.20;;
70825;SDS011;58446;41.490;22.098;2023-06-14T11:27:59;7.37;;;4.40;;
70825;SDS011;58446;41.490;22.098;2023-06-14T11:30:25;6.93;;;3.75;;
70825;SDS011;58446;41.490;22.098;2023-06-14T11:32:52;6.50;;;3.65;;
70825;SDS011;58446;41.490;22.098;2023-06-14T11:35:18;6.43;;;3.90;;
70825;SDS011;58446;41.490;22.098;2023-06-14T11:37:49;9.27;;;4.30;;
70825;SDS011;58446;41.490;22.098;2023-06-14T11:40:19;6.85;;;4.25;;
70825;SDS011;58446;41.490;22.098;2023-06-14T11:42:45;6.65;;;3.65;;
70825;SDS011;58446;41.490;22.098;2023-06-14T11:45:11;6.70;;;3.87;;
70825;SDS011;58446;41.490;22.098;2023-06-14T11:47:40;7.85;;;3.38;;
70825;SDS011;58446;41.490;22.098;2023-06-14T11:50:07;7.60;;;4.07;;
70825;SDS011;58446;41.490;22.098;2023-06-14T11:52:34;8.15;;;3.83;;
70825;SDS011;58446;41.490;22.098;2023-06-14T11:55:02;6.57;;;4.13;;
70825;SDS011;58446;41.490;22.098;2023-06-14T11:57:33;8.77;;;4.17;;
70825;SDS011;58446;41.490;22.098;2023-06-14T12:00:02;6.68;;;3.67;;
70825;SDS011;58446;41.490;22.098;2023-06-14T12:02:32;7.28;;;4.10;;
70825;SDS011;58446;41.490;22.098;2023-06-14T12:05:03;6.30;;;3.30;;
70825;SDS011;58446;41.490;22.098;2023-06-14T12:07:36;7.37;;;4.20;;
70825;SDS011;58446;41.490;22.098;2023-06-14T12:10:06;6.88;;;4.10;;
70825;SDS011;58446;41.490;22.098;2023-06-14T12:12:39;7.63;;;3.45;;
70825;SDS011;58446;41.490;22.098;2023-06-14T12:15:06;8.70;;;3.40;;
70825;SDS011;58446;41.490;22.098;2023-06-14T12:17:33;5.90;;;3.33;;
70825;SDS011;58446;41.490;22.098;2023-06-14T12:20:04;6.87;;;3.00;;
70825;SDS011;58446;41.490;22.098;2023-06-14T12:22:39;7.20;;;3.00;;
70825;SDS011;58446;41.490;22.098;2023-06-14T12:25:22;5.95;;;3.35;;
70825;SDS011;58446;41.490;22.098;2023-06-14T12:27:59;6.32;;;3.17;;
70825;SDS011;58446;41.490;22.098;2023-06-14T12:30:32;7.00;;;3.40;;
70825;SDS011;58446;41.490;22.098;2023-06-14T12:32:59;7.23;;;3.47;;
70825;SDS011;58446;41.490;22.098;2023-06-14T12:35:25;7.28;;;3.45;;
70825;SDS011;58446;41.490;22.098;2023-06-14T12:37:51;5.93;;;3.35;;
70825;SDS011;58446;41.490;22.098;2023-06-14T12:40:18;6.07;;;3.10;;
70825;SDS011;58446;41.490;22.098;2023-06-14T12:42:44;5.63;;;3.10;;
70825;SDS011;58446;41.490;22.098;2023-06-14T12:45:12;6.18;;;2.63;;
70825;SDS011;58446;41.490;22.098;2023-06-14T12:47:38;7.60;;;3.05;;
70825;SDS011;58446;41.490;22.098;2023-06-14T12:50:04;6.18;;;2.72;;
70825;SDS011;58446;41.490;22.098;2023-06-14T12:52:31;5.53;;;2.87;;
70825;SDS011;58446;41.490;22.098;2023-06-14T12:55:01;7.22;;;3.83;;
70825;SDS011;58446;41.490;22.098;2023-06-14T12:57:30;5.53;;;2.75;;
70825;SDS011;58446;41.490;22.098;2023-06-14T12:59:56;7.07;;;2.40;;
70825;SDS011;58446;41.490;22.098;2023-06-14T13:02:22;6.27;;;2.90;;
70825;SDS011;58446;41.490;22.098;2023-06-14T13:04:49;6.23;;;2.73;;
70825;SDS011;58446;41.490;22.098;2023-06-14T13:07:16;5.25;;;2.42;;
70825;SDS011;58446;41.490;22.098;2023-06-14T13:09:44;5.50;;;3.05;;
70825;SDS011;58446;41.490;22.098;2023-06-14T13:12:10;5.28;;;2.30;;
70825;SDS011;58446;41.490;22.098;2023-06-14T13:14:39;6.22;;;2.83;;
70825;SDS011;58446;41.490;22.098;2023-06-14T13:17:07;6.00;;;2.30;;
70825;SDS011;58446;41.490;22.098;2023-06-14T13:19:34;7.97;;;2.63;;
70825;SDS011;58446;41.490;22.098;2023-06-14T13:22:00;6.35;;;2.63;;
70825;SDS011;58446;41.490;22.098;2023-06-14T13:24:26;8.00;;;2.72;;
70825;SDS011;58446;41.490;22.098;2023-06-14T13:26:53;6.43;;;2.80;;
70825;SDS011;58446;41.490;22.098;2023-06-14T13:29:19;6.35;;;2.47;;
70825;SDS011;58446;41.490;22.098;2023-06-14T13:31:45;6.57;;;2.70;;
70825;SDS011;58446;41.490;22.098;2023-06-14T13:34:10;6.80;;;2.40;;
70825;SDS011;58446;41.490;22.098;2023-06-14T13:36:36;6.40;;;2.70;;
70825;SDS011;58446;41.490;22.098;2023-06-14T13:39:02;6.60;;;2.87;;
70825;SDS011;58446;41.490;22.098;2023-06-14T13:41:28;6.25;;;2.70;;
70825;SDS011;58446;41.490;22.098;2023-06-14T13:43:59;5.82;;;2.65;;
70825;SDS011;58446;41.490;22.098;2023-06-14T13:46:26;7.80;;;3.38;;
70825;SDS011;58446;41.490;22.098;2023-06-14T13:48:52;5.33;;;2.47;;
70825;SDS011;58446;41.490;22.098;2023-06-14T13:51:18;6.05;;;2.90;;
70825;SDS011;58446;41.490;22.098;2023-06-14T13:53:50;8.02;;;3.25;;
70825;SDS011;58446;41.490;22.098;2023-06-14T13:56:18;7.22;;;3.47;;
70825;SDS011;58446;41.490;22.098;2023-06-14T13:58:45;5.90;;;3.00;;
70825;SDS011;58446;41.490;22.098;2023-06-14T14:01:11;6.30;;;3.40;;
70825;SDS011;58446;41.490;22.098;2023-06-14T14:03:37;7.70;;;3.55;;
70825;SDS011;58446;41.490;22.098;2023-06-14T14:06:03;6.28;;;3.17;;
70825;SDS011;58446;41.490;22.098;2023-06-14T14:08:31;8.13;;;3.15;;
70825;SDS011;58446;41.490;22.098;2023-06-14T14:10:56;6.47;;;3.20;;
70825;SDS011;58446;41.490;22.098;2023-06-14T14:13:22;8.38;;;3.72;;
70825;SDS011;58446;41.490;22.098;2023-06-14T14:15:48;6.40;;;3.50;;
70825;SDS011;58446;41.490;22.098;2023-06-14T14:18:17;6.97;;;3.15;;
70825;SDS011;58446;41.490;22.098;2023-06-14T14:20:43;5.88;;;3.10;;
70825;SDS011;58446;41.490;22.098;2023-06-14T14:23:09;8.68;;;3.47;;
70825;SDS011;58446;41.490;22.098;2023-06-14T14:25:35;6.80;;;3.63;;
70825;SDS011;58446;41.490;22.098;2023-06-14T14:28:00;7.47;;;3.78;;
70825;SDS011;58446;41.490;22.098;2023-06-14T14:30:26;7.80;;;3.33;;
70825;SDS011;58446;41.490;22.098;2023-06-14T14:32:53;6.63;;;2.80;;
70825;SDS011;58446;41.490;22.098;2023-06-14T14:35:18;7.15;;;3.72;;
70825;SDS011;58446;41.490;22.098;2023-06-14T14:37:44;6.70;;;3.23;;
70825;SDS011;58446;41.490;22.098;2023-06-14T14:40:11;6.75;;;3.65;;
70825;SDS011;58446;41.490;22.098;2023-06-14T14:42:37;6.20;;;3.58;;
70825;SDS011;58446;41.490;22.098;2023-06-14T14:45:02;7.90;;;2.67;;
70825;SDS011;58446;41.490;22.098;2023-06-14T14:47:28;6.75;;;3.35;;
70825;SDS011;58446;41.490;22.098;2023-06-14T14:49:54;6.17;;;3.10;;
70825;SDS011;58446;41.490;22.098;2023-06-14T14:52:20;7.47;;;3.42;;